Time;durP1;ratioP1;P1;durP2;ratioP2;P2;SDS_P1;SDS_P2;PMS_P1;PMS_P2;Temp;Humidity;BMP_temperature;BMP_pressure;BME280_temperature;BME280_humidity;BME280_pressure;Samples;Min_cycle;Max_cycle;Signal;HPM_P1;HPM_P2
2021/08/31 00:01:27;;;;;;;19.10;10.00;;;;;;;13.14;77.04;98447.81;112182;1205;111178;-74
2021/08/31 00:03:58;;;;;;;19.30;9.20;;;;;;;13.14;77.06;98449.42;112200;1205;95050;-74
2021/08/31 00:06:30;;;;;;;16.60;9.00;;;;;;;13.13;77.02;98445.77;112196;1205;107485;-75
2021/08/31 00:08:59;;;;;;;17.60;9.00;;;;;;;13.12;77.05;98443.36;112171;1201;97607;-73
2021/08/31 00:11:28;;;;;;;17.50;8.60;;;;;;;13.11;77.03;98441.65;112256;1198;97700;-74
2021/08/31 00:14:00;;;;;;;15.50;7.70;;;;;;;13.11;76.97;98443.08;112959;1197;111383;-73
2021/08/31 00:16:28;;;;;;;18.30;8.90;;;;;;;13.11;76.99;98442.38;112233;1205;97601;-74
2021/08/31 00:18:55;;;;;;;18.00;8.90;;;;;;;13.11;76.99;98446.79;112205;1205;107503;-73
2021/08/31 00:21:27;;;;;;;17.30;8.40;;;;;;;13.10;76.98;98444.91;112161;1198;95131;-74
2021/08/31 00:23:54;;;;;;;17.00;8.80;;;;;;;13.09;76.99;98445.02;112220;1199;97711;-73
2021/08/31 00:26:22;;;;;;;16.50;7.70;;;;;;;13.08;76.98;98444.23;112675;1197;110876;-73
2021/08/31 00:28:50;;;;;;;16.90;7.50;;;;;;;13.07;77.02;98446.42;112258;1198;96850;-73
2021/08/31 00:31:18;;;;;;;17.40;8.20;;;;;;;13.07;76.95;98449.14;112219;1206;107455;-74
2021/08/31 00:33:52;;;;;;;15.50;7.60;;;;;;;13.06;77.00;98445.70;112220;1197;96070;-75
2021/08/31 00:36:19;;;;;;;15.50;7.80;;;;;;;13.06;76.97;98447.83;112342;1198;97578;-74
2021/08/31 00:38:47;;;;;;;14.40;7.00;;;;;;;13.05;77.03;98445.56;112199;1205;111093;-74
2021/08/31 00:41:15;;;;;;;14.30;6.70;;;;;;;13.05;77.06;98438.64;112252;1205;95047;-74
2021/08/31 00:43:51;;;;;;;10.20;5.90;;;;;;;13.03;77.00;98439.00;112239;1205;106529;-74
2021/08/31 00:46:23;;;;;;;14.70;6.90;;;;;;;13.02;76.99;98439.67;112101;1206;97666;-74
2021/08/31 00:48:52;;;;;;;15.90;6.40;;;;;;;13.01;76.94;98442.80;112245;1198;97604;-73
2021/08/31 00:51:26;;;;;;;13.00;6.00;;;;;;;13.00;77.00;98439.09;112130;1197;111249;-73
2021/08/31 00:53:53;;;;;;;12.00;5.80;;;;;;;12.99;76.94;98439.77;112770;1197;98098;-74
2021/08/31 00:56:21;;;;;;;12.30;5.80;;;;;;;12.97;76.87;98438.66;112239;1206;106787;-72
2021/08/31 00:58:54;;;;;;;12.00;5.90;;;;;;;12.94;76.94;98435.77;112224;1205;97692;-74
2021/08/31 01:01:22;;;;;;;12.70;6.00;;;;;;;12.92;76.90;98433.23;112199;1197;95575;-73
2021/08/31 01:03:53;;;;;;;10.90;5.50;;;;;;;12.92;77.00;98437.38;112226;1206;110671;-73
2021/08/31 01:06:21;;;;;;;10.80;5.30;;;;;;;12.91;76.98;98436.54;112700;1197;97554;-73
2021/08/31 01:08:52;;;;;;;10.10;5.10;;;;;;;12.91;76.95;98437.98;112179;1206;108909;-71
2021/08/31 01:11:20;;;;;;;11.60;5.40;;;;;;;12.90;76.93;98432.71;112681;1197;96447;-74
2021/08/31 01:13:49;;;;;;;10.30;5.40;;;;;;;12.90;76.89;98432.56;112231;1198;97589;-73
2021/08/31 01:16:20;;;;;;;11.00;5.60;;;;;;;12.88;76.92;98428.30;112167;1205;111088;-73
2021/08/31 01:18:48;;;;;;;13.50;5.50;;;;;;;12.86;77.02;98428.98;112168;1198;97578;-73
2021/08/31 01:21:16;;;;;;;11.70;5.40;;;;;;;12.86;77.01;98427.96;112195;1206;107058;-73
2021/08/31 01:23:49;;;;;;;12.60;5.30;;;;;;;12.84;76.92;98426.90;113106;1197;95989;-72
2021/08/31 01:26:17;;;;;;;10.40;5.50;;;;;;;12.83;76.94;98425.00;112778;1199;95965;-73
2021/08/31 01:28:45;;;;;;;10.70;5.40;;;;;;;12.83;76.94;98419.35;112167;1206;110789;-73
2021/08/31 01:31:13;;;;;;;10.20;5.20;;;;;;;12.83;76.95;98418.65;112601;1198;97537;-73
2021/08/31 01:33:41;;;;;;;9.80;4.90;;;;;;;12.82;76.95;98415.84;112237;1197;107556;-73
2021/08/31 01:36:24;;;;;;;12.50;5.10;;;;;;;12.82;76.97;98421.93;112397;1197;98041;-73
2021/08/31 01:38:56;;;;;;;8.50;5.30;;;;;;;12.81;76.95;98423.79;112208;1198;97649;-73
2021/08/31 01:41:27;;;;;;;13.40;5.40;;;;;;;12.81;76.94;98426.79;112692;1197;112031;-74
2021/08/31 01:43:55;;;;;;;10.80;5.20;;;;;;;12.83;77.04;98428.46;112222;1206;97623;-73
2021/08/31 01:46:23;;;;;;;10.40;5.20;;;;;;;12.84;76.95;98424.75;112222;1206;107396;-74
2021/08/31 01:48:51;;;;;;;10.80;5.50;;;;;;;12.86;77.05;98427.80;112192;1205;97680;-73
2021/08/31 01:51:19;;;;;;;11.20;5.20;;;;;;;12.88;77.01;98427.06;112236;1198;95118;-75
2021/08/31 01:53:53;;;;;;;10.40;5.50;;;;;;;12.89;77.04;98429.25;112246;1206;111454;-74
2021/08/31 01:56:21;;;;;;;7.40;4.20;;;;;;;12.90;76.98;98423.80;112196;1205;97592;-74
2021/08/31 01:58:49;;;;;;;9.20;4.80;;;;;;;12.91;77.00;98416.23;112098;1206;107447;-73
2021/08/31 02:01:20;;;;;;;8.40;4.80;;;;;;;12.91;76.90;98415.71;112197;1197;97693;-73
2021/08/31 02:03:48;;;;;;;9.90;4.70;;;;;;;12.89;76.92;98413.20;112188;1198;98160;-72
2021/08/31 02:06:16;;;;;;;10.60;4.80;;;;;;;12.90;76.89;98415.88;112212;1205;110854;-73
2021/08/31 02:08:44;;;;;;;8.40;4.50;;;;;;;12.89;76.93;98417.00;112261;1205;97675;-74
2021/08/31 02:11:12;;;;;;;8.80;4.70;;;;;;;12.89;76.87;98417.20;112228;1204;107520;-74
2021/08/31 02:13:40;;;;;;;8.80;4.50;;;;;;;12.88;76.88;98408.35;112177;1205;97640;-74
2021/08/31 02:16:08;;;;;;;9.00;4.90;;;;;;;12.86;76.89;98407.48;112248;1197;97692;-74
2021/08/31 02:18:41;;;;;;;8.90;4.60;;;;;;;12.85;76.95;98404.16;112156;1206;110942;-74
2021/08/31 02:21:10;;;;;;;10.10;4.80;;;;;;;12.84;76.92;98399.45;112191;1198;97609;-74
2021/08/31 02:23:42;;;;;;;12.60;4.60;;;;;;;12.82;76.95;98399.99;112183;1206;106528;-74
2021/08/31 02:26:10;;;;;;;9.80;4.70;;;;;;;12.78;76.96;98400.16;112165;1198;97588;-74
2021/08/31 02:28:38;;;;;;;7.60;4.10;;;;;;;12.77;76.97;98394.94;112229;1199;97602;-75
2021/08/31 02:31:06;;;;;;;9.00;4.40;;;;;;;12.77;76.92;98394.61;112192;1206;109996;-74
2021/08/31 02:33:34;;;;;;;9.00;4.80;;;;;;;12.77;76.98;98394.80;112204;1206;95139;-74
2021/08/31 02:36:01;;;;;;;7.40;4.70;;;;;;;12.76;77.05;98394.67;112200;1206;107505;-74
2021/08/31 02:38:29;;;;;;;9.00;4.90;;;;;;;12.77;77.01;98392.31;112172;1198;98769;-71
2021/08/31 02:40:57;;;;;;;10.30;4.80;;;;;;;12.77;76.97;98386.77;112197;1206;95806;-74
2021/08/31 02:43:25;;;;;;;9.60;4.50;;;;;;;12.77;76.99;98385.53;112154;1198;111033;-74
2021/08/31 02:45:52;;;;;;;6.80;3.80;;;;;;;12.77;76.97;98386.41;112171;1198;95063;-75
2021/08/31 02:48:20;;;;;;;9.70;4.60;;;;;;;12.77;76.94;98383.59;112147;1206;107279;-75
2021/08/31 02:50:48;;;;;;;8.00;4.10;;;;;;;12.75;76.94;98380.90;112179;1197;97690;-74
2021/08/31 02:53:16;;;;;;;9.10;4.20;;;;;;;12.74;76.97;98381.19;112155;1206;97700;-74
2021/08/31 02:55:44;;;;;;;8.00;4.00;;;;;;;12.74;76.92;98378.55;112166;1206;111136;-75
2021/08/31 02:58:12;;;;;;;7.00;3.80;;;;;;;12.73;76.95;98375.23;112393;1204;97868;-74
2021/08/31 03:00:42;;;;;;;6.80;4.00;;;;;;;12.72;76.97;98371.27;112208;1206;107430;-73
2021/08/31 03:03:13;;;;;;;6.20;3.70;;;;;;;12.70;77.01;98369.07;112123;1201;98023;-73
2021/08/31 03:05:41;;;;;;;4.80;3.20;;;;;;;12.69;76.99;98371.89;112197;1206;97599;-74
2021/08/31 03:08:09;;;;;;;7.60;3.80;;;;;;;12.66;77.01;98365.85;112152;1200;111187;-74
2021/08/31 03:10:37;;;;;;;7.70;3.90;;;;;;;12.64;77.06;98366.44;112157;1206;97799;-74
2021/08/31 03:13:05;;;;;;;6.60;3.50;;;;;;;12.62;77.08;98365.24;112125;1198;107498;-75
2021/08/31 03:15:33;;;;;;;8.40;4.00;;;;;;;12.61;77.16;98367.58;112145;1206;95223;-74
2021/08/31 03:18:01;;;;;;;6.70;4.00;;;;;;;12.61;77.08;98363.67;112168;1198;97610;-73
2021/08/31 03:20:29;;;;;;;4.90;3.30;;;;;;;12.61;77.20;98369.38;112176;1206;111152;-72
2021/08/31 03:22:57;;;;;;;7.00;3.90;;;;;;;12.61;77.15;98367.21;112260;1199;98019;-74
2021/08/31 03:25:25;;;;;;;6.90;3.40;;;;;;;12.61;77.17;98365.09;112580;1198;107415;-73
2021/08/31 03:27:52;;;;;;;6.90;3.80;;;;;;;12.61;77.13;98365.10;112122;1199;97684;-73
2021/08/31 03:30:24;;;;;;;5.80;3.70;;;;;;;12.62;77.26;98366.60;112170;1201;95057;-74
2021/08/31 03:32:51;;;;;;;7.40;4.00;;;;;;;12.64;77.23;98360.57;112211;1207;111969;-73
2021/08/31 03:35:21;;;;;;;5.60;3.70;;;;;;;12.64;77.27;98362.83;112185;1205;97648;-72
2021/08/31 03:37:54;;;;;;;7.40;3.90;;;;;;;12.65;77.34;98370.91;112177;1207;106414;-74
2021/08/31 03:40:22;;;;;;;7.20;3.90;;;;;;;12.65;77.27;98369.34;112158;1198;97708;-74
2021/08/31 03:42:50;;;;;;;6.30;3.80;;;;;;;12.65;77.35;98367.06;112140;1208;97690;-73
2021/08/31 03:45:18;;;;;;;7.40;4.40;;;;;;;12.64;77.34;98366.71;112096;1206;111173;-73
2021/08/31 03:47:46;;;;;;;7.10;4.20;;;;;;;12.64;77.39;98365.91;112160;1206;97617;-73
2021/08/31 03:50:13;;;;;;;8.60;4.10;;;;;;;12.65;77.41;98372.20;112106;1199;107486;-73
2021/08/31 03:52:41;;;;;;;6.90;3.60;;;;;;;12.65;77.40;98364.34;113195;1198;95381;-72
2021/08/31 03:55:13;;;;;;;8.80;4.40;;;;;;;12.65;77.41;98365.23;112143;1201;97600;-73
2021/08/31 03:57:41;;;;;;;7.30;4.00;;;;;;;12.65;77.46;98362.92;112140;1206;111058;-72
2021/08/31 04:00:10;;;;;;;8.10;4.10;;;;;;;12.65;77.49;98358.36;112161;1205;97632;-72
2021/08/31 04:02:38;;;;;;;8.00;4.30;;;;;;;12.64;77.52;98359.81;112113;1206;107427;-74
2021/08/31 04:05:09;;;;;;;8.90;3.80;;;;;;;12.65;77.56;98360.09;112148;1198;97761;-73
2021/08/31 04:07:37;;;;;;;9.00;4.20;;;;;;;12.67;77.50;98367.09;112164;1205;94945;-72
2021/08/31 04:10:11;;;;;;;9.20;4.60;;;;;;;12.67;77.42;98365.45;112203;1205;111244;-74
2021/08/31 04:12:39;;;;;;;8.30;4.50;;;;;;;12.67;77.57;98365.26;112193;1203;96087;-73
2021/08/31 04:15:07;;;;;;;8.80;4.60;;;;;;;12.69;77.65;98368.17;112070;1205;107440;-74
2021/08/31 04:17:35;;;;;;;7.00;4.20;;;;;;;12.69;77.55;98362.27;112225;1207;97591;-73
2021/08/31 04:20:05;;;;;;;7.60;3.60;;;;;;;12.70;77.62;98356.66;112428;1199;97586;-73
2021/08/31 04:22:33;;;;;;;7.60;4.40;;;;;;;12.70;77.58;98361.80;112149;1205;110143;-73
2021/08/31 04:25:01;;;;;;;8.00;4.10;;;;;;;12.70;77.64;98360.77;112098;1205;97612;-76
2021/08/31 04:27:28;;;;;;;8.60;4.60;;;;;;;12.71;77.58;98359.78;112138;1205;107717;-74
2021/08/31 04:29:56;;;;;;;10.40;4.30;;;;;;;12.71;77.81;98358.54;112710;1197;96020;-76
2021/08/31 04:32:24;;;;;;;10.60;4.40;;;;;;;12.72;77.74;98355.92;112154;1198;97604;-77
2021/08/31 04:34:55;;;;;;;8.10;4.20;;;;;;;12.72;77.72;98351.67;112083;1198;111160;-78
2021/08/31 04:37:24;;;;;;;8.40;4.20;;;;;;;12.72;77.78;98354.67;112130;1206;97613;-78
2021/08/31 04:39:52;;;;;;;6.40;3.80;;;;;;;12.74;77.73;98351.33;112146;1198;107493;-74
2021/08/31 04:42:20;;;;;;;8.70;4.00;;;;;;;12.75;77.89;98346.77;112611;1198;97601;-74
2021/08/31 04:44:49;;;;;;;8.70;4.30;;;;;;;12.75;77.90;98347.84;112129;1203;97598;-75
2021/08/31 04:47:20;;;;;;;9.70;4.40;;;;;;;12.75;77.79;98349.44;112159;1198;110899;-73
2021/08/31 04:49:52;;;;;;;7.00;4.00;;;;;;;12.76;77.91;98346.32;112133;1205;97575;-76
2021/08/31 04:52:19;;;;;;;7.20;4.10;;;;;;;12.77;77.93;98342.78;112168;1206;107385;-75
2021/08/31 04:54:47;;;;;;;7.60;3.80;;;;;;;12.79;77.95;98341.17;112167;1198;95077;-80
2021/08/31 04:57:25;;;;;;;7.50;4.20;;;;;;;12.82;78.02;98341.34;112111;1203;95234;-79
2021/08/31 04:59:53;;;;;;;8.20;4.20;;;;;;;12.84;77.90;98338.41;112143;1205;111159;-77
2021/08/31 05:02:21;;;;;;;7.20;4.20;;;;;;;12.87;77.92;98337.27;112127;1205;97653;-77
2021/08/31 05:04:49;;;;;;;6.20;3.70;;;;;;;12.89;77.91;98335.88;112142;1205;107595;-78
2021/08/31 05:07:20;;;;;;;9.10;4.40;;;;;;;12.90;77.93;98332.86;112077;1205;97689;-77
2021/08/31 05:09:48;;;;;;;7.60;3.40;;;;;;;12.93;78.12;98334.96;112602;1198;97697;-75
2021/08/31 05:12:16;;;;;;;7.80;3.90;;;;;;;12.97;78.00;98334.38;112142;1203;111186;-77
2021/08/31 05:14:43;;;;;;;7.90;3.90;;;;;;;13.01;78.03;98334.74;112115;1205;97607;-77
2021/08/31 05:17:14;;;;;;;7.20;3.60;;;;;;;13.03;78.05;98332.08;112119;1205;107460;-77
2021/08/31 05:19:42;;;;;;;9.10;4.40;;;;;;;13.05;78.12;98329.18;112146;1197;97600;-77
2021/08/31 05:22:11;;;;;;;7.30;4.30;;;;;;;13.07;78.08;98329.38;112183;1205;97706;-77
2021/08/31 05:24:39;;;;;;;6.50;3.70;;;;;;;13.09;78.12;98328.10;112153;1205;110881;-78
2021/08/31 05:27:07;;;;;;;7.70;4.00;;;;;;;13.12;78.08;98327.14;112183;1206;94968;-78
2021/08/31 05:29:34;;;;;;;9.10;4.10;;;;;;;13.15;78.05;98327.73;112109;1203;107476;-77
2021/08/31 05:32:02;;;;;;;8.20;4.30;;;;;;;13.18;78.12;98328.36;112105;1198;97715;-77
2021/08/31 05:34:30;;;;;;;6.00;3.70;;;;;;;13.21;78.09;98328.02;112196;1204;97689;-78
2021/08/31 05:37:02;;;;;;;7.60;3.80;;;;;;;13.24;78.15;98325.36;112137;1205;111162;-78
2021/08/31 05:39:33;;;;;;;6.60;3.40;;;;;;;13.27;78.06;98322.88;112191;1205;97699;-77
2021/08/31 05:42:09;;;;;;;10.10;4.00;;;;;;;13.31;78.25;98326.41;112145;1205;108894;-79
2021/08/31 05:44:41;;;;;;;6.60;3.80;;;;;;;13.34;78.13;98319.12;112143;1205;97701;-76
2021/08/31 05:47:09;;;;;;;6.80;3.90;;;;;;;13.41;78.14;98317.13;112100;1205;98764;-79
2021/08/31 05:49:37;;;;;;;8.00;4.30;;;;;;;13.48;78.23;98318.54;112078;1205;111078;-78
2021/08/31 05:52:05;;;;;;;6.30;3.70;;;;;;;13.55;78.19;98318.44;112147;1204;95138;-79
2021/08/31 05:54:36;;;;;;;8.80;4.30;;;;;;;13.61;78.24;98317.50;112101;1207;107212;-79
2021/08/31 05:57:09;;;;;;;8.10;4.40;;;;;;;13.67;78.26;98317.42;112141;1204;97570;-78
2021/08/31 05:59:43;;;;;;;7.60;4.10;;;;;;;13.75;78.25;98317.58;112158;1205;95168;-78
2021/08/31 06:02:11;;;;;;;7.10;4.00;;;;;;;13.80;78.17;98315.66;112128;1205;111839;-77
2021/08/31 06:04:40;;;;;;;9.40;4.90;;;;;;;13.79;78.19;98318.71;112139;1205;97680;-78
2021/08/31 06:07:12;;;;;;;8.00;4.30;;;;;;;13.80;78.18;98318.54;112211;1204;107481;-77
2021/08/31 06:09:41;;;;;;;7.80;4.10;;;;;;;13.82;78.25;98319.77;112117;1205;97690;-78
2021/08/31 06:12:14;;;;;;;6.70;4.00;;;;;;;13.82;78.14;98313.52;112136;1198;97587;-79
2021/08/31 06:14:42;;;;;;;7.50;4.00;;;;;;;13.83;78.13;98314.48;112162;1198;111023;-77
2021/08/31 06:17:14;;;;;;;8.00;3.90;;;;;;;13.82;78.19;98316.52;112162;1204;97538;-78
2021/08/31 06:19:41;;;;;;;9.60;4.10;;;;;;;13.78;78.16;98314.19;112056;1205;108160;-78
2021/08/31 06:22:09;;;;;;;9.60;4.10;;;;;;;13.75;78.19;98319.33;112142;1205;97707;-79
2021/08/31 06:24:37;;;;;;;9.60;4.30;;;;;;;13.75;78.23;98321.52;112208;1199;95163;-78
2021/08/31 06:27:08;;;;;;;7.80;4.10;;;;;;;13.74;78.26;98321.52;112095;1205;111218;-79
2021/08/31 06:29:36;;;;;;;7.60;4.10;;;;;;;13.74;78.25;98324.12;112146;1204;97699;-78
2021/08/31 06:32:08;;;;;;;8.00;4.00;;;;;;;13.71;78.19;98325.09;112179;1205;107438;-78
2021/08/31 06:34:36;;;;;;;7.20;3.80;;;;;;;13.66;78.19;98327.48;112129;1202;97684;-78
2021/08/31 06:37:03;;;;;;;8.60;4.20;;;;;;;13.64;78.19;98327.86;112156;1203;97677;-78
2021/08/31 06:39:31;;;;;;;9.30;4.30;;;;;;;13.62;78.19;98328.27;112065;1205;111035;-78
2021/08/31 06:41:59;;;;;;;7.00;4.30;;;;;;;13.59;78.22;98331.98;112126;1206;95226;-79
2021/08/31 06:44:27;;;;;;;10.70;4.80;;;;;;;13.55;78.14;98325.14;112135;1205;107487;-77
2021/08/31 06:46:55;;;;;;;11.20;4.40;;;;;;;13.51;78.13;98332.51;112180;1205;97675;-77
2021/08/31 06:49:23;;;;;;;7.00;4.30;;;;;;;13.50;78.22;98334.27;112113;1205;97650;-78
2021/08/31 06:51:50;;;;;;;10.00;4.70;;;;;;;13.49;78.26;98336.80;112094;1205;111733;-78
2021/08/31 06:54:18;;;;;;;8.80;4.70;;;;;;;13.49;78.21;98336.79;112119;1206;97583;-79
2021/08/31 06:56:46;;;;;;;9.80;4.90;;;;;;;13.48;78.18;98339.95;112076;1199;107427;-77
2021/08/31 06:59:14;;;;;;;8.00;4.40;;;;;;;13.48;78.19;98339.41;112128;1199;97691;-79
2021/08/31 07:01:41;;;;;;;14.30;5.30;;;;;;;13.48;78.19;98337.27;112880;1198;97573;-78
2021/08/31 07:04:10;;;;;;;8.10;4.30;;;;;;;13.48;78.16;98335.24;112033;1205;110153;-78
2021/08/31 07:06:38;;;;;;;9.20;5.10;;;;;;;13.47;78.15;98334.70;112123;1205;95066;-78
2021/08/31 07:09:06;;;;;;;9.70;4.60;;;;;;;13.47;78.22;98335.93;112112;1205;107971;-78
2021/08/31 07:11:34;;;;;;;9.20;4.70;;;;;;;13.51;78.20;98336.58;112123;1199;97623;-77
2021/08/31 07:14:05;;;;;;;12.70;5.10;;;;;;;13.56;78.25;98339.01;112091;1202;97660;-78
2021/08/31 07:16:35;;;;;;;8.70;4.60;;;;;;;13.61;78.21;98340.13;112136;1198;111521;-79
2021/08/31 07:19:04;;;;;;;9.10;4.90;;;;;;;13.65;78.27;98340.98;112094;1207;97669;-80
2021/08/31 07:21:34;;;;;;;9.70;5.00;;;;;;;13.69;78.23;98341.11;112108;1205;107509;-78
2021/08/31 07:24:02;;;;;;;10.10;4.60;;;;;;;13.74;78.24;98343.33;112169;1198;97686;-79
2021/08/31 07:26:29;;;;;;;9.90;5.30;;;;;;;13.79;78.27;98347.69;112106;1198;97731;-79
2021/08/31 07:28:57;;;;;;;10.30;4.60;;;;;;;13.80;78.23;98348.62;112087;1205;111202;-78
2021/08/31 07:31:25;;;;;;;9.10;4.60;;;;;;;13.81;78.19;98346.75;112048;1205;95010;-79
2021/08/31 07:33:53;;;;;;;9.00;4.90;;;;;;;13.81;78.17;98345.11;112093;1198;107428;-77
2021/08/31 07:36:21;;;;;;;9.50;5.10;;;;;;;13.80;78.24;98346.45;112058;1206;98047;-78
2021/08/31 07:38:55;;;;;;;14.50;5.50;;;;;;;13.80;78.22;98350.16;112121;1197;97706;-77
2021/08/31 07:41:27;;;;;;;7.90;4.30;;;;;;;13.82;78.22;98349.98;112071;1206;111195;-77
2021/08/31 07:43:57;;;;;;;9.80;4.20;;;;;;;13.85;78.24;98352.23;112108;1204;97700;-78
2021/08/31 07:46:25;;;;;;;8.20;4.90;;;;;;;13.87;78.22;98353.83;112096;1205;107438;-79
2021/08/31 07:48:56;;;;;;;9.30;4.80;;;;;;;13.87;78.21;98350.25;112125;1204;97651;-78
2021/08/31 07:51:25;;;;;;;10.70;4.80;;;;;;;13.89;78.21;98349.76;112083;1198;98302;-78
2021/08/31 07:53:53;;;;;;;8.60;4.80;;;;;;;13.91;78.17;98345.81;112064;1204;111038;-77
2021/08/31 07:56:21;;;;;;;11.20;4.70;;;;;;;13.95;78.20;98350.17;112129;1208;96140;-78
2021/08/31 07:58:49;;;;;;;11.90;5.30;;;;;;;13.99;78.24;98351.89;112085;1205;107762;-79
2021/08/31 08:01:20;;;;;;;8.90;4.30;;;;;;;14.04;78.13;98352.88;112098;1199;98280;-79
2021/08/31 08:03:48;;;;;;;9.30;4.80;;;;;;;14.07;78.19;98357.91;112101;1199;95782;-77
2021/08/31 08:06:16;;;;;;;10.40;4.90;;;;;;;14.09;78.14;98355.73;112090;1205;111160;-79
2021/08/31 08:08:44;;;;;;;8.80;4.40;;;;;;;14.10;78.19;98357.94;112096;1205;97712;-78
2021/08/31 08:11:13;;;;;;;9.90;4.80;;;;;;;14.12;78.14;98358.29;112095;1201;107493;-79
2021/08/31 08:13:41;;;;;;;10.40;4.80;;;;;;;14.19;78.10;98359.27;112059;1198;97597;-77
2021/08/31 08:16:13;;;;;;;8.90;4.60;;;;;;;14.27;78.21;98364.56;112107;1199;97575;-78
2021/08/31 08:18:41;;;;;;;8.60;4.50;;;;;;;14.30;78.24;98366.33;112105;1205;111225;-76
2021/08/31 08:21:09;;;;;;;13.00;4.70;;;;;;;14.32;78.14;98366.24;112059;1205;97727;-80
2021/08/31 08:23:37;;;;;;;10.10;4.70;;;;;;;14.30;78.09;98366.33;112062;1205;107549;-78
2021/08/31 08:26:12;;;;;;;9.20;4.70;;;;;;;14.29;78.06;98367.68;112156;1205;97679;-79
2021/08/31 08:28:40;;;;;;;14.10;5.00;;;;;;;14.29;78.21;98364.98;112084;1198;97642;-79
2021/08/31 08:31:08;;;;;;;8.40;4.60;;;;;;;14.30;78.16;98361.71;112074;1200;112449;-80
2021/08/31 08:33:38;;;;;;;9.70;4.90;;;;;;;14.32;78.11;98364.06;112051;1205;97676;-80
2021/08/31 08:36:08;;;;;;;8.60;4.60;;;;;;;14.34;78.15;98362.82;112073;1205;108536;-78
2021/08/31 08:38:39;;;;;;;8.00;4.50;;;;;;;14.36;78.08;98362.02;112140;1199;97594;-78
2021/08/31 08:41:07;;;;;;;10.20;4.80;;;;;;;14.36;78.17;98359.39;112138;1198;98025;-78
2021/08/31 08:43:40;;;;;;;7.70;4.50;;;;;;;14.34;78.09;98356.34;112088;1203;111082;-80
2021/08/31 08:46:12;;;;;;;11.40;4.60;;;;;;;14.30;78.05;98354.95;112136;1203;95374;-80
2021/08/31 08:48:40;;;;;;;8.90;4.70;;;;;;;14.22;78.00;98352.64;112073;1204;106607;-79
2021/08/31 08:51:08;;;;;;;10.00;4.20;;;;;;;14.20;78.05;98350.92;112092;1205;97562;-78
2021/08/31 08:53:36;;;;;;;8.20;4.10;;;;;;;14.17;78.06;98350.93;112122;1205;96388;-77
2021/08/31 08:56:04;;;;;;;8.20;4.40;;;;;;;14.14;78.11;98346.71;112120;1204;111047;-76
2021/08/31 08:58:32;;;;;;;11.30;4.90;;;;;;;14.11;78.13;98344.71;112075;1198;98118;-78
2021/08/31 09:01:08;;;;;;;8.40;4.50;;;;;;;14.13;78.23;98345.60;112129;1203;107591;-77
2021/08/31 09:03:50;;;;;;;8.60;4.40;;;;;;;14.17;78.20;98352.89;112054;1200;97660;-79
2021/08/31 09:06:21;;;;;;;7.40;4.20;;;;;;;14.17;78.12;98344.48;112069;1198;95351;-78
2021/08/31 09:09:01;;;;;;;6.30;3.90;;;;;;;14.20;78.07;98343.14;111985;1206;111168;-77
2021/08/31 09:11:33;;;;;;;8.70;4.20;;;;;;;14.26;78.16;98346.58;111993;1205;97672;-79
2021/08/31 09:14:33;;;;;;;5.80;3.80;;;;;;;14.35;78.20;98344.91;112909;1197;107571;-80
2021/08/31 09:17:07;;;;;;;10.20;4.20;;;;;;;14.41;78.14;98345.98;112015;1203;96403;-78
2021/08/31 09:19:41;;;;;;;6.80;4.00;;;;;;;14.47;78.11;98347.82;112096;1200;97700;-78
2021/08/31 09:22:26;;;;;;;8.60;4.40;;;;;;;14.49;78.11;98349.40;112007;1202;109592;-79
2021/08/31 09:25:12;;;;;;;8.70;4.00;;;;;;;14.47;78.13;98352.77;111901;1203;97541;-79
2021/08/31 09:27:48;;;;;;;6.80;4.20;;;;;;;14.44;78.10;98349.30;112015;1203;107555;-78
2021/08/31 09:30:27;;;;;;;6.50;4.00;;;;;;;14.41;78.00;98345.80;111999;1200;97620;-78
2021/08/31 09:33:15;;;;;;;7.20;4.10;;;;;;;14.41;78.02;98349.61;111989;1203;97775;-77
2021/08/31 09:36:09;;;;;;;10.10;4.40;;;;;;;14.40;78.03;98344.17;111910;1198;111160;-77
2021/08/31 09:38:58;;;;;;;8.40;4.30;;;;;;;14.41;78.07;98345.63;112486;1197;98056;-78
2021/08/31 09:41:32;;;;;;;8.90;4.50;;;;;;;14.41;78.11;98339.27;112044;1205;107336;-78
2021/08/31 09:44:07;;;;;;;9.50;4.40;;;;;;;14.42;78.01;98342.39;112020;1205;97671;-78
2021/08/31 09:47:12;;;;;;;7.60;4.00;;;;;;;14.42;78.05;98341.10;112034;1202;97760;-77
2021/08/31 09:49:49;;;;;;;7.50;3.70;;;;;;;14.42;78.07;98342.02;111797;1209;111224;-76
2021/08/31 09:52:17;;;;;;;;;;;;;;;14.44;78.01;98338.58;112682;1199;95989;-79
2021/08/31 09:54:50;;;;;;;8.60;4.20;;;;;;;14.45;78.01;98343.13;111952;1203;107245;-78
2021/08/31 09:57:41;;;;;;;9.10;4.80;;;;;;;14.51;78.07;98336.85;111995;1198;97677;-77
2021/08/31 10:00:17;;;;;;;10.40;4.20;;;;;;;14.54;78.10;98345.46;112116;1198;97620;-75
2021/08/31 10:02:48;;;;;;;7.10;3.60;;;;;;;14.54;78.08;98348.08;112012;1205;111142;-74
2021/08/31 10:05:24;;;;;;;8.60;4.30;;;;;;;14.55;78.01;98343.90;112024;1205;97549;-74
2021/08/31 10:08:02;;;;;;;8.70;4.40;;;;;;;14.57;78.02;98351.38;112030;1201;107423;-73
2021/08/31 10:10:39;;;;;;;8.30;4.50;;;;;;;14.57;78.12;98348.84;112037;1197;97588;-75
2021/08/31 10:13:16;;;;;;;8.90;4.50;;;;;;;14.54;78.05;98346.80;111993;1198;97654;-75
2021/08/31 10:15:47;;;;;;;8.90;5.10;;;;;;;14.53;78.00;98354.65;112039;1206;110998;-75
2021/08/31 10:18:23;;;;;;;11.20;4.80;;;;;;;14.55;78.10;98354.67;111908;1203;95712;-75
2021/08/31 10:21:11;;;;;;;13.20;5.30;;;;;;;14.57;78.06;98359.54;111992;1206;107928;-75
2021/08/31 10:23:49;;;;;;;6.70;4.20;;;;;;;14.58;78.12;98354.87;112039;1200;97681;-76
2021/08/31 10:26:23;;;;;;;9.20;4.50;;;;;;;14.61;78.14;98352.30;112069;1198;97701;-76
2021/08/31 10:28:52;;;;;;;12.50;5.40;;;;;;;14.63;78.10;98352.06;111915;1205;111188;-74
2021/08/31 10:31:31;;;;;;;9.00;4.90;;;;;;;14.66;78.08;98355.55;111931;1199;97592;-74
2021/08/31 10:33:58;;;;;;;11.90;5.20;;;;;;;14.68;78.08;98352.27;112443;1198;107782;-75
2021/08/31 10:36:37;;;;;;;10.30;5.60;;;;;;;14.70;78.10;98350.13;111853;1198;97632;-75
2021/08/31 10:39:07;;;;;;;8.90;4.30;;;;;;;14.72;78.07;98351.30;112040;1206;97698;-74
2021/08/31 10:41:45;;;;;;;9.50;4.70;;;;;;;14.74;78.00;98350.20;112003;1205;109745;-75
2021/08/31 10:44:34;;;;;;;11.10;5.10;;;;;;;14.77;78.07;98353.87;112068;1206;97696;-76
2021/08/31 10:47:07;;;;;;;10.90;5.30;;;;;;;14.78;78.05;98349.46;112019;1206;107549;-75
2021/08/31 10:49:57;;;;;;;11.80;5.80;;;;;;;14.83;78.06;98351.31;112021;1201;95041;-74
2021/08/31 10:52:34;;;;;;;10.70;4.90;;;;;;;14.86;78.08;98350.86;112049;1205;97575;-76
2021/08/31 10:55:26;;;;;;;11.00;5.50;;;;;;;14.88;78.08;98354.48;112038;1198;111071;-75
2021/08/31 10:57:56;;;;;;;10.30;5.00;;;;;;;14.92;78.13;98353.48;112041;1205;97601;-76
2021/08/31 11:00:25;;;;;;;9.40;4.90;;;;;;;14.90;78.13;98353.45;112062;1198;107517;-74
2021/08/31 11:02:57;;;;;;;12.20;5.70;;;;;;;14.85;78.10;98351.05;112077;1199;97690;-74
2021/08/31 11:05:27;;;;;;;11.10;5.60;;;;;;;14.81;78.13;98350.09;112062;1200;96016;-74
2021/08/31 11:07:59;;;;;;;12.20;6.00;;;;;;;14.78;78.08;98350.09;112002;1205;111126;-75
2021/08/31 11:10:31;;;;;;;11.20;5.80;;;;;;;14.74;78.15;98351.27;111895;1205;97621;-75
2021/08/31 11:13:21;;;;;;;11.70;5.40;;;;;;;14.70;78.12;98348.16;112016;1205;107478;-74
2021/08/31 11:15:54;;;;;;;12.50;6.00;;;;;;;14.67;78.28;98350.08;112013;1205;96467;-73
2021/08/31 11:18:22;;;;;;;11.40;5.90;;;;;;;14.68;78.28;98350.44;112543;1198;95356;-74
2021/08/31 11:20:53;;;;;;;11.80;5.30;;;;;;;14.71;78.27;98349.11;112016;1204;111143;-76
2021/08/31 11:23:22;;;;;;;13.60;5.60;;;;;;;14.74;78.20;98345.59;111952;1205;97653;-75
2021/08/31 11:25:56;;;;;;;10.40;5.60;;;;;;;14.76;78.27;98345.29;112020;1205;107334;-75
2021/08/31 11:28:33;;;;;;;;;;;;;;;14.77;78.23;98346.38;112561;1197;97577;-73
2021/08/31 11:31:12;;;;;;;12.00;5.80;;;;;;;14.72;78.27;98345.10;112220;1199;95146;-75
2021/08/31 11:33:45;;;;;;;12.30;6.30;;;;;;;14.71;78.22;98344.85;111990;1205;111995;-72
2021/08/31 11:36:19;;;;;;;11.90;5.90;;;;;;;14.68;78.34;98342.77;111944;1205;95761;-73